createdAt,value
2017-02-28T00:00:37.215Z,0
2017-02-28T00:01:17.710Z,0
2017-02-28T00:01:58.190Z,0
2017-02-28T00:02:38.682Z,0
2017-02-28T00:03:19.181Z,0
2017-02-28T00:03:59.639Z,0
2017-02-28T00:04:40.142Z,0
2017-02-28T00:05:20.607Z,0
2017-02-28T00:06:01.133Z,0
2017-02-28T00:06:41.631Z,0
2017-02-28T00:07:22.144Z,0
2017-02-28T00:08:02.684Z,0
2017-02-28T00:08:43.179Z,0
2017-02-28T00:09:23.677Z,0
2017-02-28T00:10:04.191Z,0
2017-02-28T00:10:44.703Z,0
2017-02-28T00:11:25.165Z,0
2017-02-28T00:12:05.668Z,0
2017-02-28T00:12:46.184Z,0
2017-02-28T00:13:26.685Z,0
2017-02-28T00:14:07.165Z,0
2017-02-28T00:14:47.645Z,0
2017-02-28T00:15:28.232Z,0
2017-02-28T00:16:08.794Z,0
2017-02-28T00:16:49.251Z,0
2017-02-28T00:17:29.720Z,0
2017-02-28T00:18:10.231Z,0
2017-02-28T00:18:50.725Z,0
2017-02-28T00:19:31.251Z,0
2017-02-28T00:20:11.704Z,0
2017-02-28T00:20:52.207Z,0
2017-02-28T00:21:32.671Z,0
2017-02-28T00:22:13.164Z,0
2017-02-28T00:22:53.702Z,0
2017-02-28T00:23:34.242Z,0
2017-02-28T00:24:14.762Z,0
2017-02-28T00:24:55.268Z,0
2017-02-28T00:25:35.743Z,0
2017-02-28T00:26:16.213Z,0
2017-02-28T00:26:56.801Z,0
2017-02-28T00:27:37.283Z,0
2017-02-28T00:28:17.767Z,0
2017-02-28T00:28:58.328Z,0
2017-02-28T00:29:38.807Z,0
2017-02-28T00:30:19.329Z,0
2017-02-28T00:30:59.756Z,0
2017-02-28T00:31:40.264Z,0
2017-02-28T00:32:20.773Z,0
2017-02-28T00:33:01.268Z,0
2017-02-28T00:33:41.812Z,0
2017-02-28T00:34:22.284Z,0
2017-02-28T00:35:02.789Z,0
2017-02-28T00:35:43.316Z,0
2017-02-28T00:36:23.766Z,0
2017-02-28T00:37:04.357Z,0
2017-02-28T00:37:44.878Z,0
2017-02-28T00:38:27.020Z,0
2017-02-28T00:39:09.504Z,0
2017-02-28T00:39:49.966Z,0
2017-02-28T00:40:30.452Z,0
2017-02-28T00:41:10.929Z,0
2017-02-28T00:41:51.390Z,0
2017-02-28T00:42:31.951Z,0
2017-02-28T00:43:12.406Z,0
2017-02-28T00:43:53.247Z,0
2017-02-28T00:44:33.762Z,0
2017-02-28T00:45:14.200Z,0
2017-02-28T00:45:54.720Z,0
2017-02-28T00:46:35.203Z,0
2017-02-28T00:47:15.742Z,0
2017-02-28T00:47:56.418Z,0
2017-02-28T00:48:36.752Z,0
2017-02-28T00:49:17.191Z,0
2017-02-28T00:49:57.696Z,0
2017-02-28T00:50:38.193Z,0
2017-02-28T00:51:18.739Z,0
2017-02-28T00:51:59.154Z,0
2017-02-28T00:52:39.652Z,0
2017-02-28T00:53:20.170Z,0
2017-02-28T00:54:00.692Z,0
2017-02-28T00:54:41.147Z,0
2017-02-28T00:55:21.596Z,0
2017-02-28T00:56:02.078Z,0
2017-02-28T00:56:42.597Z,0
2017-02-28T00:57:23.078Z,0
2017-02-28T00:58:03.577Z,0
2017-02-28T00:58:44.119Z,0
2017-02-28T00:59:24.688Z,0
2017-02-28T01:00:05.291Z,0
2017-02-28T01:00:45.771Z,0
2017-02-28T01:01:26.301Z,0
2017-02-28T01:02:07.266Z,0
2017-02-28T01:02:48.660Z,0
2017-02-28T01:03:29.152Z,0
2017-02-28T01:04:09.638Z,0
2017-02-28T01:04:50.113Z,0
2017-02-28T01:05:30.649Z,0
2017-02-28T01:06:11.117Z,0
2017-02-28T01:06:51.617Z,0
2017-02-28T01:07:32.109Z,0
2017-02-28T01:08:12.609Z,0
2017-02-28T01:08:53.074Z,0
2017-02-28T01:09:33.610Z,0
2017-02-28T01:10:14.055Z,0
2017-02-28T01:10:54.520Z,0
2017-02-28T01:11:35.043Z,0
2017-02-28T01:12:15.595Z,0
2017-02-28T01:12:56.006Z,0
2017-02-28T01:13:36.520Z,0
2017-02-28T01:14:17.024Z,0
2017-02-28T01:14:57.542Z,0
2017-02-28T01:15:37.976Z,0
2017-02-28T01:16:18.442Z,0
2017-02-28T01:16:58.957Z,0
2017-02-28T01:17:39.467Z,0
2017-02-28T01:18:19.930Z,0
2017-02-28T01:19:00.444Z,0
2017-02-28T01:19:40.968Z,0
2017-02-28T01:20:21.413Z,0
2017-02-28T01:21:01.943Z,0
2017-02-28T01:21:42.397Z,0
2017-02-28T01:22:22.874Z,0
2017-02-28T01:23:03.423Z,0
2017-02-28T01:23:43.880Z,0
2017-02-28T01:24:24.357Z,0
2017-02-28T01:25:04.909Z,0
2017-02-28T01:25:45.368Z,0
2017-02-28T01:26:25.878Z,0
2017-02-28T01:27:06.391Z,0
2017-02-28T01:27:46.824Z,0
2017-02-28T01:28:27.411Z,0
2017-02-28T01:29:07.834Z,0
2017-02-28T01:29:48.341Z,0
2017-02-28T01:30:28.899Z,0
2017-02-28T01:31:09.348Z,0
2017-02-28T01:31:49.852Z,0
2017-02-28T01:32:30.386Z,0
2017-02-28T01:33:10.921Z,0
2017-02-28T01:33:51.344Z,0
2017-02-28T01:34:31.966Z,0
2017-02-28T01:35:12.420Z,0
2017-02-28T01:35:52.938Z,0
2017-02-28T01:36:33.420Z,0
2017-02-28T01:37:13.997Z,0
2017-02-28T01:37:54.593Z,0
2017-02-28T01:38:35.067Z,0
2017-02-28T01:39:15.592Z,0
2017-02-28T01:39:56.057Z,0
2017-02-28T01:40:36.559Z,0
2017-02-28T01:41:17.057Z,0
2017-02-28T01:41:57.546Z,0
2017-02-28T01:42:38.017Z,0
2017-02-28T01:43:18.445Z,0
2017-02-28T01:43:58.935Z,0
2017-02-28T01:44:39.459Z,0
2017-02-28T01:45:19.953Z,0
2017-02-28T01:46:00.442Z,0
2017-02-28T01:46:40.932Z,0
2017-02-28T01:47:21.412Z,0
2017-02-28T01:48:01.877Z,0
2017-02-28T01:48:42.383Z,0
2017-02-28T01:49:22.874Z,0
2017-02-28T01:50:03.366Z,0
2017-02-28T01:50:43.866Z,0
2017-02-28T01:51:24.408Z,0
2017-02-28T01:52:04.838Z,0
2017-02-28T01:52:45.365Z,0
2017-02-28T01:53:25.829Z,0
2017-02-28T01:54:06.317Z,0
2017-02-28T01:54:46.810Z,0
2017-02-28T01:55:27.316Z,0
2017-02-28T01:56:07.809Z,0
2017-02-28T01:56:48.311Z,0
2017-02-28T01:57:28.779Z,0
2017-02-28T01:58:09.271Z,0
2017-02-28T01:58:49.755Z,0
2017-02-28T01:59:30.234Z,0
2017-02-28T02:00:10.786Z,0
2017-02-28T02:00:51.276Z,0
2017-02-28T02:01:31.711Z,0
2017-02-28T02:02:12.256Z,0
2017-02-28T02:02:52.690Z,0
2017-02-28T02:03:33.194Z,0
2017-02-28T02:04:13.722Z,0
2017-02-28T02:04:54.206Z,0
2017-02-28T02:05:34.713Z,0
2017-02-28T02:06:15.152Z,0
2017-02-28T02:06:55.656Z,0
2017-02-28T02:07:36.192Z,0
2017-02-28T02:08:16.637Z,0
2017-02-28T02:08:57.209Z,0
2017-02-28T02:09:37.652Z,0
2017-02-28T02:10:18.152Z,0
2017-02-28T02:10:58.640Z,0
2017-02-28T02:11:39.144Z,0
2017-02-28T02:12:19.555Z,0
2017-02-28T02:13:00.194Z,0
2017-02-28T02:13:40.668Z,0
2017-02-28T02:14:21.136Z,0
2017-02-28T02:15:01.653Z,0
2017-02-28T02:15:42.234Z,0
2017-02-28T02:16:22.653Z,0
2017-02-28T02:17:03.191Z,0
2017-02-28T02:17:43.680Z,0
2017-02-28T02:18:24.162Z,0
2017-02-28T02:19:04.624Z,0
2017-02-28T02:19:45.155Z,0
2017-02-28T02:20:25.609Z,0
2017-02-28T02:21:06.152Z,0
2017-02-28T02:21:46.628Z,0
2017-02-28T02:22:27.241Z,0
2017-02-28T02:23:07.755Z,0
2017-02-28T02:23:48.256Z,0
2017-02-28T02:24:28.777Z,0
2017-02-28T02:25:09.227Z,0
2017-02-28T02:25:49.750Z,0
2017-02-28T02:26:30.245Z,0
2017-02-28T02:27:10.734Z,0
2017-02-28T02:27:51.203Z,0
2017-02-28T02:28:31.713Z,0
2017-02-28T02:29:12.163Z,0
2017-02-28T02:29:52.668Z,0
2017-02-28T02:30:33.148Z,0
2017-02-28T02:31:13.634Z,0
2017-02-28T02:31:54.149Z,0
2017-02-28T02:32:34.611Z,0
2017-02-28T02:33:15.085Z,0
2017-02-28T02:33:55.586Z,0
2017-02-28T02:34:36.070Z,0
2017-02-28T02:35:16.738Z,0
2017-02-28T02:35:57.133Z,0
2017-02-28T02:36:37.596Z,0
2017-02-28T02:37:18.063Z,0
2017-02-28T02:37:58.601Z,0
2017-02-28T02:38:39.077Z,0
2017-02-28T02:39:19.545Z,0
2017-02-28T02:40:00.060Z,0
2017-02-28T02:40:40.554Z,0
2017-02-28T02:41:21.018Z,0
2017-02-28T02:42:01.466Z,0
2017-02-28T02:42:41.970Z,0
2017-02-28T02:43:22.472Z,0
2017-02-28T02:44:02.946Z,0
2017-02-28T02:44:43.496Z,0
2017-02-28T02:45:23.953Z,0
2017-02-28T02:46:04.491Z,0
2017-02-28T02:46:44.996Z,0
2017-02-28T02:47:25.526Z,0
2017-02-28T02:48:06.028Z,0
2017-02-28T02:48:46.553Z,0
2017-02-28T02:49:27.722Z,0
2017-02-28T02:50:08.214Z,0
2017-02-28T02:50:48.695Z,0
2017-02-28T02:51:29.192Z,0
2017-02-28T02:52:09.640Z,0
2017-02-28T02:52:50.141Z,0
2017-02-28T02:53:30.674Z,0
2017-02-28T02:54:11.129Z,0
2017-02-28T02:54:51.637Z,0
2017-02-28T02:55:32.124Z,0
2017-02-28T02:56:12.651Z,0
2017-02-28T02:56:53.092Z,0
2017-02-28T02:57:33.638Z,0
2017-02-28T02:58:14.134Z,0
2017-02-28T02:58:54.685Z,0
2017-02-28T02:59:35.119Z,0
2017-02-28T03:00:15.665Z,0
2017-02-28T03:00:56.140Z,0
2017-02-28T03:01:36.621Z,0
2017-02-28T03:02:17.116Z,0
2017-02-28T03:02:57.621Z,0
2017-02-28T03:03:38.081Z,0
2017-02-28T03:04:18.538Z,0
2017-02-28T03:04:59.093Z,0
2017-02-28T03:05:39.527Z,0
2017-02-28T03:06:20.010Z,0
2017-02-28T03:07:00.551Z,0
2017-02-28T03:07:40.994Z,0
2017-02-28T03:08:21.530Z,0
2017-02-28T03:09:02.055Z,0
2017-02-28T03:09:42.648Z,0
2017-02-28T03:10:23.117Z,0
2017-02-28T03:11:03.607Z,0
2017-02-28T03:11:44.063Z,0
2017-02-28T03:12:24.621Z,0
2017-02-28T03:13:05.111Z,0
2017-02-28T03:13:45.619Z,0
2017-02-28T03:14:26.108Z,0
2017-02-28T03:15:06.556Z,0
2017-02-28T03:15:47.074Z,0
2017-02-28T03:16:27.601Z,0
2017-02-28T03:17:08.081Z,0
2017-02-28T03:17:48.601Z,0
2017-02-28T03:18:29.066Z,0
2017-02-28T03:19:09.517Z,0
2017-02-28T03:19:49.990Z,0
2017-02-28T03:20:30.517Z,0
2017-02-28T03:21:10.980Z,0
2017-02-28T03:21:51.453Z,0
2017-02-28T03:22:31.959Z,0
2017-02-28T03:23:12.448Z,0
2017-02-28T03:23:52.970Z,0
2017-02-28T03:24:33.488Z,0
2017-02-28T03:25:13.975Z,0
2017-02-28T03:25:54.455Z,0
2017-02-28T03:26:34.947Z,0
2017-02-28T03:27:15.432Z,0
2017-02-28T03:27:55.899Z,0
2017-02-28T03:28:36.438Z,0
2017-02-28T03:29:17.227Z,0
2017-02-28T03:29:57.434Z,0
2017-02-28T03:30:38.006Z,0
2017-02-28T03:31:18.454Z,0
2017-02-28T03:31:58.934Z,0
2017-02-28T03:32:39.405Z,0
2017-02-28T03:33:19.970Z,0
2017-02-28T03:34:00.435Z,0
2017-02-28T03:34:40.885Z,0
2017-02-28T03:35:21.399Z,0
2017-02-28T03:36:01.888Z,0
2017-02-28T03:36:42.344Z,0
2017-02-28T03:37:22.926Z,0
2017-02-28T03:38:03.454Z,0
2017-02-28T03:38:43.958Z,0
2017-02-28T03:39:24.429Z,0
2017-02-28T03:40:04.923Z,0
2017-02-28T03:40:45.422Z,0
2017-02-28T03:41:26.435Z,0
2017-02-28T03:42:06.406Z,0
2017-02-28T03:42:46.897Z,0
2017-02-28T03:43:27.379Z,0
2017-02-28T03:44:07.857Z,0
2017-02-28T03:44:48.346Z,0
2017-02-28T03:45:28.878Z,0
2017-02-28T03:46:09.327Z,0
2017-02-28T03:46:50.679Z,0
2017-02-28T03:47:31.156Z,0
2017-02-28T03:48:15.228Z,0
2017-02-28T03:48:55.665Z,0
2017-02-28T03:49:36.183Z,0
2017-02-28T03:50:16.667Z,0
2017-02-28T03:50:57.117Z,0
2017-02-28T03:51:37.618Z,0
2017-02-28T03:52:18.163Z,0
2017-02-28T03:52:58.655Z,0
2017-02-28T03:53:39.175Z,0
2017-02-28T03:54:19.676Z,0
2017-02-28T03:55:00.175Z,0
2017-02-28T03:55:40.692Z,0
2017-02-28T03:56:21.159Z,0
2017-02-28T03:57:02.575Z,0
2017-02-28T03:57:42.983Z,0
2017-02-28T03:58:23.527Z,0
2017-02-28T03:59:03.983Z,0
2017-02-28T03:59:44.449Z,0
2017-02-28T04:00:24.962Z,0
2017-02-28T04:01:05.420Z,0
2017-02-28T04:01:45.935Z,0
2017-02-28T04:02:26.384Z,0
2017-02-28T04:03:06.912Z,0
2017-02-28T04:03:47.440Z,0
2017-02-28T04:04:27.917Z,0
2017-02-28T04:05:08.380Z,0
2017-02-28T04:05:48.873Z,0
2017-02-28T04:06:29.407Z,0
2017-02-28T04:07:09.964Z,0
2017-02-28T04:07:50.436Z,0
2017-02-28T04:08:30.930Z,0
2017-02-28T04:09:11.438Z,0
2017-02-28T04:09:51.908Z,0
2017-02-28T04:10:32.415Z,0
2017-02-28T04:11:12.894Z,0
2017-02-28T04:11:53.388Z,0
2017-02-28T04:12:33.875Z,0
2017-02-28T04:13:14.357Z,0
2017-02-28T04:13:54.876Z,0
2017-02-28T04:14:35.345Z,0
2017-02-28T04:15:15.858Z,0
2017-02-28T04:15:56.339Z,0
2017-02-28T04:16:36.830Z,0
2017-02-28T04:17:17.483Z,0
2017-02-28T04:17:58.030Z,0
2017-02-28T04:18:38.529Z,0
2017-02-28T04:19:19.058Z,0
2017-02-28T04:19:59.478Z,0
2017-02-28T04:20:39.973Z,0
2017-02-28T04:21:20.494Z,0
2017-02-28T04:22:00.954Z,0
2017-02-28T04:22:41.451Z,0
2017-02-28T04:23:21.895Z,0
2017-02-28T04:24:02.405Z,0
2017-02-28T04:24:42.885Z,0
2017-02-28T04:25:23.355Z,0
2017-02-28T04:26:03.877Z,0
2017-02-28T04:26:44.346Z,0
2017-02-28T04:27:24.818Z,0
2017-02-28T04:28:05.288Z,0
2017-02-28T04:28:45.765Z,0
2017-02-28T04:29:26.236Z,0
2017-02-28T04:30:06.757Z,0
2017-02-28T04:30:47.244Z,0
2017-02-28T04:31:27.728Z,0
2017-02-28T04:32:08.175Z,0
2017-02-28T04:32:48.669Z,0
2017-02-28T04:33:29.194Z,0
2017-02-28T04:34:09.664Z,0
2017-02-28T04:34:50.138Z,0
2017-02-28T04:35:31.092Z,0
2017-02-28T04:36:15.670Z,0
2017-02-28T04:36:59.074Z,0
2017-02-28T04:37:39.460Z,0
2017-02-28T04:38:19.999Z,0
2017-02-28T04:39:00.463Z,0
2017-02-28T04:39:40.996Z,0
2017-02-28T04:40:21.493Z,0
2017-02-28T04:41:02.019Z,0
2017-02-28T04:41:42.540Z,0
2017-02-28T04:42:23.040Z,0
2017-02-28T04:43:03.551Z,0
2017-02-28T04:43:43.991Z,0
2017-02-28T04:44:24.455Z,0
2017-02-28T04:45:05.011Z,0
2017-02-28T04:45:45.477Z,0
2017-02-28T04:46:25.952Z,0
2017-02-28T04:47:06.489Z,0
2017-02-28T04:47:46.994Z,0
2017-02-28T04:48:27.441Z,0
2017-02-28T04:49:07.911Z,0
2017-02-28T04:49:48.368Z,0
2017-02-28T04:50:28.869Z,0
2017-02-28T04:51:09.392Z,0
2017-02-28T04:51:49.853Z,0
2017-02-28T04:52:30.357Z,0
2017-02-28T04:53:10.848Z,0
2017-02-28T04:53:51.314Z,0
2017-02-28T04:54:31.791Z,0
2017-02-28T04:55:12.306Z,0
2017-02-28T04:55:52.808Z,0
2017-02-28T04:56:33.264Z,0
2017-02-28T04:57:13.762Z,0
2017-02-28T04:57:54.255Z,0
2017-02-28T04:58:34.761Z,0
2017-02-28T04:59:15.281Z,0
2017-02-28T04:59:55.802Z,0
2017-02-28T05:00:36.282Z,0
2017-02-28T05:01:16.800Z,0
2017-02-28T05:01:57.291Z,0
2017-02-28T05:02:37.818Z,0
2017-02-28T05:03:18.245Z,0
2017-02-28T05:03:58.730Z,0
2017-02-28T05:04:39.214Z,0
2017-02-28T05:05:19.678Z,0
2017-02-28T05:06:00.180Z,0
2017-02-28T05:06:40.626Z,0
2017-02-28T05:07:21.151Z,0
2017-02-28T05:08:01.643Z,0
2017-02-28T05:08:42.103Z,0
2017-02-28T05:09:22.582Z,0
2017-02-28T05:10:03.036Z,0
2017-02-28T05:10:43.527Z,0
2017-02-28T05:11:24.096Z,0
2017-02-28T05:12:04.536Z,0
2017-02-28T05:12:45.012Z,0
2017-02-28T05:13:25.546Z,0
2017-02-28T05:14:06.030Z,0
2017-02-28T05:14:46.534Z,0
2017-02-28T05:15:27.014Z,0
2017-02-28T05:16:07.542Z,0
2017-02-28T05:16:48.037Z,0
2017-02-28T05:17:28.533Z,0
2017-02-28T05:18:09.059Z,0
2017-02-28T05:18:49.549Z,0
2017-02-28T05:19:30.061Z,0
2017-02-28T05:20:10.542Z,0
2017-02-28T05:20:51.051Z,0
2017-02-28T05:21:31.580Z,0
2017-02-28T05:22:12.045Z,0
2017-02-28T05:22:52.556Z,0
2017-02-28T05:23:33.027Z,0
2017-02-28T05:24:13.512Z,0
2017-02-28T05:24:54.004Z,0
2017-02-28T05:25:38.056Z,0
2017-02-28T05:26:18.550Z,0
2017-02-28T05:26:59.032Z,0
2017-02-28T05:27:43.224Z,0
2017-02-28T05:28:23.784Z,0
2017-02-28T05:29:04.272Z,0
2017-02-28T05:29:45.746Z,0
2017-02-28T05:30:27.300Z,0
2017-02-28T05:31:07.794Z,0
2017-02-28T05:31:48.439Z,0
2017-02-28T05:32:28.935Z,0
2017-02-28T05:33:09.480Z,0
2017-02-28T05:33:49.958Z,0
2017-02-28T05:34:30.492Z,0
2017-02-28T05:35:11.041Z,0
2017-02-28T05:35:51.478Z,0
2017-02-28T05:36:31.981Z,0
2017-02-28T05:37:12.469Z,0
2017-02-28T05:37:53.069Z,0
2017-02-28T05:38:33.609Z,0
2017-02-28T05:39:14.067Z,0
2017-02-28T05:39:54.612Z,0
2017-02-28T05:40:35.087Z,0
2017-02-28T05:41:15.578Z,0
2017-02-28T05:41:56.100Z,0
2017-02-28T05:42:36.785Z,0
2017-02-28T05:43:17.134Z,0
2017-02-28T05:43:57.643Z,0
2017-02-28T05:44:38.167Z,0
2017-02-28T05:45:18.671Z,0
2017-02-28T05:45:59.164Z,0
2017-02-28T05:46:39.610Z,0
2017-02-28T05:47:20.135Z,0
2017-02-28T05:48:00.922Z,0
2017-02-28T05:48:41.454Z,0
2017-02-28T05:49:21.915Z,0
2017-02-28T05:50:02.479Z,0
2017-02-28T05:50:42.919Z,0
2017-02-28T05:51:23.432Z,0
2017-02-28T05:52:03.885Z,0
2017-02-28T05:52:44.400Z,0
2017-02-28T05:53:24.876Z,0
2017-02-28T05:54:05.411Z,0
2017-02-28T05:54:45.892Z,0
2017-02-28T05:55:26.389Z,0
2017-02-28T05:56:06.914Z,0
2017-02-28T05:56:47.401Z,0
2017-02-28T05:57:27.881Z,0
2017-02-28T05:58:08.352Z,0
2017-02-28T05:58:48.973Z,0
2017-02-28T05:59:29.417Z,0
2017-02-28T06:00:09.915Z,0
2017-02-28T06:00:50.415Z,0
2017-02-28T06:01:30.984Z,0
2017-02-28T06:02:11.376Z,0
2017-02-28T06:02:51.888Z,0
2017-02-28T06:05:05.315Z,0
2017-02-28T06:05:45.742Z,0
2017-02-28T06:06:26.248Z,0
2017-02-28T06:07:06.696Z,5
2017-02-28T06:07:47.226Z,5
2017-02-28T06:08:27.678Z,5
2017-02-28T06:09:08.210Z,5
2017-02-28T06:09:48.688Z,5
2017-02-28T06:10:29.160Z,5
2017-02-28T06:11:09.652Z,5
2017-02-28T06:11:50.135Z,5
2017-02-28T06:12:30.666Z,5
2017-02-28T06:13:11.200Z,5
2017-02-28T06:13:51.745Z,5
2017-02-28T06:14:32.251Z,5
2017-02-28T06:15:12.781Z,5
2017-02-28T06:15:53.219Z,10
2017-02-28T06:16:33.774Z,10
2017-02-28T06:17:14.326Z,10
2017-02-28T06:17:54.797Z,10
2017-02-28T06:18:35.379Z,10
2017-02-28T06:19:15.866Z,10
2017-02-28T06:19:57.064Z,10
2017-02-28T06:20:37.522Z,10
2017-02-28T06:21:17.994Z,10
2017-02-28T06:21:58.464Z,10
2017-02-28T06:22:39.013Z,15
2017-02-28T06:23:20.025Z,15
2017-02-28T06:24:01.832Z,15
2017-02-28T06:24:42.367Z,15
2017-02-28T06:25:22.897Z,15
2017-02-28T06:26:03.450Z,15
2017-02-28T06:26:44.080Z,15
2017-02-28T06:27:24.633Z,15
2017-02-28T06:28:05.137Z,20
2017-02-28T06:28:45.653Z,20
2017-02-28T06:29:26.082Z,20
2017-02-28T06:30:06.554Z,20
2017-02-28T06:30:47.104Z,20
2017-02-28T06:31:27.650Z,20
2017-02-28T06:32:08.192Z,20
2017-02-28T06:32:48.663Z,20
2017-02-28T06:33:29.226Z,20
2017-02-28T06:34:09.659Z,20
2017-02-28T06:34:50.191Z,20
2017-02-28T06:35:30.781Z,20
2017-02-28T06:36:11.272Z,20
2017-02-28T06:36:51.800Z,20
2017-02-28T06:37:32.306Z,20
2017-02-28T06:38:12.805Z,20
2017-02-28T06:38:55.198Z,15
2017-02-28T06:39:35.635Z,20
2017-02-28T06:40:16.069Z,20
2017-02-28T06:40:56.592Z,30
2017-02-28T06:41:37.034Z,35
2017-02-28T06:42:17.547Z,35
2017-02-28T06:42:58.077Z,30
2017-02-28T06:43:38.596Z,20
2017-02-28T06:44:19.077Z,15
2017-02-28T06:44:59.623Z,15
2017-02-28T06:45:40.097Z,20
2017-02-28T06:46:20.579Z,25
2017-02-28T06:47:01.030Z,25
2017-02-28T06:47:41.624Z,20
2017-02-28T06:48:22.082Z,20
2017-02-28T06:49:02.565Z,20
2017-02-28T06:49:42.987Z,20
2017-02-28T06:50:23.545Z,25
2017-02-28T06:51:04.203Z,20
2017-02-28T06:51:44.525Z,20
2017-02-28T06:52:25.020Z,20
2017-02-28T06:53:05.601Z,20
2017-02-28T06:53:46.143Z,15
2017-02-28T06:54:26.652Z,20
2017-02-28T06:55:07.194Z,20
2017-02-28T06:55:47.720Z,20
2017-02-28T06:56:28.172Z,25
2017-02-28T06:57:08.682Z,30
2017-02-28T06:57:49.145Z,40
2017-02-28T06:58:29.639Z,45
2017-02-28T06:59:10.200Z,50
2017-02-28T06:59:50.695Z,50
2017-02-28T07:00:31.153Z,45
2017-02-28T07:01:11.612Z,35
2017-02-28T07:01:52.103Z,35
2017-02-28T07:02:32.654Z,40
2017-02-28T07:03:13.152Z,35
2017-02-28T07:03:53.630Z,35
2017-02-28T07:04:34.085Z,35
2017-02-28T07:05:14.711Z,35
2017-02-28T07:05:55.210Z,40
2017-02-28T07:06:35.766Z,40
2017-02-28T07:07:16.251Z,40
2017-02-28T07:07:56.727Z,40
2017-02-28T07:08:37.206Z,55
2017-02-28T07:09:17.732Z,65
2017-02-28T07:09:58.209Z,60
2017-02-28T07:10:38.669Z,60
2017-02-28T07:11:19.177Z,60
2017-02-28T07:11:59.665Z,65
2017-02-28T07:12:40.210Z,65
2017-02-28T07:13:20.742Z,65
2017-02-28T07:14:01.243Z,65
2017-02-28T07:14:41.689Z,75
2017-02-28T07:15:22.188Z,80
2017-02-28T07:16:02.730Z,80
2017-02-28T07:16:43.210Z,85
2017-02-28T07:17:23.722Z,90
2017-02-28T07:18:04.215Z,95
2017-02-28T07:18:44.666Z,100
2017-02-28T07:19:25.214Z,95
2017-02-28T07:20:05.765Z,95
2017-02-28T07:20:46.234Z,95
2017-02-28T07:21:26.735Z,95
2017-02-28T07:22:07.210Z,100
2017-02-28T07:22:47.671Z,100
2017-02-28T07:23:28.399Z,100
2017-02-28T07:24:08.885Z,100
2017-02-28T07:24:49.396Z,100
2017-02-28T07:25:29.895Z,100
2017-02-28T07:26:10.338Z,100
2017-02-28T07:26:50.826Z,100
2017-02-28T07:27:31.299Z,100
2017-02-28T07:28:11.805Z,100
2017-02-28T07:28:52.295Z,100
2017-02-28T07:29:32.810Z,105
2017-02-28T07:30:13.292Z,110
2017-02-28T07:30:53.748Z,115
2017-02-28T07:31:34.282Z,125
2017-02-28T07:32:14.731Z,130
2017-02-28T07:32:55.224Z,135
2017-02-28T07:33:35.766Z,135
2017-02-28T07:34:16.290Z,135
2017-02-28T07:34:56.719Z,130
2017-02-28T07:35:37.267Z,130
2017-02-28T07:36:17.791Z,125
2017-02-28T07:36:58.283Z,120
2017-02-28T07:37:38.829Z,120
2017-02-28T07:38:19.249Z,115
2017-02-28T07:38:59.754Z,115
2017-02-28T07:39:40.215Z,115
2017-02-28T07:40:20.757Z,110
2017-02-28T07:41:01.222Z,105
2017-02-28T07:41:41.757Z,105
2017-02-28T07:42:22.179Z,105
2017-02-28T07:43:02.622Z,100
2017-02-28T07:43:43.172Z,100
2017-02-28T07:44:23.665Z,100
2017-02-28T07:45:04.123Z,100
2017-02-28T07:45:44.602Z,100
2017-02-28T07:46:25.112Z,95
2017-02-28T07:47:05.569Z,95
2017-02-28T07:47:46.058Z,95
2017-02-28T07:48:26.563Z,100
2017-02-28T07:49:07.075Z,100
2017-02-28T07:49:47.713Z,100
2017-02-28T07:50:28.222Z,100
2017-02-28T07:51:08.750Z,100
2017-02-28T07:51:49.190Z,100
2017-02-28T07:52:29.722Z,100
2017-02-28T07:53:10.269Z,110
2017-02-28T07:53:50.681Z,125
2017-02-28T07:54:31.214Z,135
2017-02-28T07:55:11.680Z,145
2017-02-28T07:55:52.195Z,150
2017-02-28T07:58:05.397Z,145
2017-02-28T07:58:45.877Z,140
2017-02-28T07:59:26.381Z,135
2017-02-28T08:00:06.899Z,150
2017-02-28T08:00:47.375Z,145
2017-02-28T08:01:27.852Z,135
2017-02-28T08:02:08.368Z,135
2017-02-28T08:02:48.831Z,135
2017-02-28T08:03:29.399Z,140
2017-02-28T08:04:09.834Z,145
2017-02-28T08:04:50.383Z,155
2017-02-28T08:05:30.930Z,165
2017-02-28T08:06:11.455Z,165
2017-02-28T08:06:51.994Z,160
2017-02-28T08:07:33.264Z,150
2017-02-28T08:08:12.943Z,145
2017-02-28T08:08:53.437Z,145
2017-02-28T08:09:33.933Z,155
2017-02-28T08:10:14.554Z,165
2017-02-28T08:10:55.082Z,150
2017-02-28T08:11:35.562Z,150
2017-02-28T08:12:16.061Z,140
2017-02-28T08:12:56.583Z,140
2017-02-28T08:13:37.443Z,135
2017-02-28T08:14:17.937Z,125
2017-02-28T08:14:58.413Z,85
2017-02-28T08:15:39.376Z,85
2017-02-28T08:16:19.877Z,110
2017-02-28T08:17:00.387Z,110
2017-02-28T08:17:40.943Z,110
2017-02-28T08:18:21.365Z,115
2017-02-28T08:19:01.886Z,120
2017-02-28T08:19:42.368Z,120
2017-02-28T08:20:22.840Z,125
2017-02-28T08:21:03.339Z,125
2017-02-28T08:21:43.801Z,125
2017-02-28T08:22:24.262Z,115
2017-02-28T08:23:04.859Z,115
2017-02-28T08:23:45.403Z,115
2017-02-28T08:24:25.870Z,110
2017-02-28T08:25:06.395Z,115
2017-02-28T08:25:46.875Z,115
2017-02-28T08:26:27.331Z,115
2017-02-28T08:27:07.801Z,110
2017-02-28T08:27:48.294Z,110
2017-02-28T08:28:28.769Z,115
2017-02-28T08:29:09.287Z,110
2017-02-28T08:29:49.888Z,115
2017-02-28T08:30:30.340Z,115
2017-02-28T08:31:10.851Z,115
2017-02-28T08:31:51.359Z,115
2017-02-28T08:32:31.850Z,115
2017-02-28T08:33:12.315Z,115
2017-02-28T08:33:52.891Z,115
2017-02-28T08:34:33.347Z,115
2017-02-28T08:35:13.834Z,115
2017-02-28T08:35:54.383Z,115
2017-02-28T08:36:34.879Z,115
2017-02-28T08:37:15.545Z,115
2017-02-28T08:37:55.953Z,110
2017-02-28T08:38:36.432Z,110
2017-02-28T08:39:16.933Z,105
2017-02-28T08:39:57.445Z,105
2017-02-28T08:40:37.911Z,105
2017-02-28T08:41:18.451Z,110
2017-02-28T08:41:58.975Z,110
2017-02-28T08:42:39.428Z,110
2017-02-28T08:43:19.943Z,110
2017-02-28T08:44:00.450Z,110
2017-02-28T08:44:40.927Z,110
2017-02-28T08:45:21.626Z,110
2017-02-28T08:46:02.106Z,105
2017-02-28T08:46:42.631Z,105
2017-02-28T08:47:23.107Z,105
2017-02-28T08:48:03.635Z,105
2017-02-28T08:48:44.137Z,105
2017-02-28T08:49:24.658Z,105
2017-02-28T08:50:05.125Z,105
2017-02-28T08:50:45.630Z,105
2017-02-28T08:51:26.171Z,105
2017-02-28T08:52:06.646Z,105
2017-02-28T08:52:47.134Z,105
2017-02-28T08:53:27.648Z,105
2017-02-28T08:54:08.083Z,105
2017-02-28T08:54:48.546Z,105
2017-02-28T08:55:29.071Z,105
2017-02-28T08:56:09.524Z,105
2017-02-28T08:56:50.039Z,105
2017-02-28T08:57:30.533Z,100
2017-02-28T08:58:11.034Z,100
2017-02-28T08:58:51.538Z,105
2017-02-28T08:59:32.071Z,105
2017-02-28T09:00:12.528Z,105
2017-02-28T09:00:52.986Z,105
2017-02-28T09:01:33.482Z,105
2017-02-28T09:02:13.969Z,105
2017-02-28T09:02:54.785Z,110
2017-02-28T09:03:35.354Z,110
2017-02-28T09:04:15.879Z,110
2017-02-28T09:04:56.392Z,110
2017-02-28T09:05:36.991Z,115
2017-02-28T09:06:17.561Z,115
2017-02-28T09:06:58.101Z,115
2017-02-28T09:07:38.660Z,115
2017-02-28T09:08:19.200Z,115
2017-02-28T09:08:59.686Z,115
2017-02-28T09:09:40.216Z,115
2017-02-28T09:10:20.697Z,115
2017-02-28T09:11:01.180Z,110
2017-02-28T09:11:41.652Z,115
2017-02-28T09:12:22.133Z,125
2017-02-28T09:13:02.646Z,130
2017-02-28T09:13:43.171Z,130
2017-02-28T09:14:23.623Z,135
2017-02-28T09:15:04.160Z,145
2017-02-28T09:15:45.004Z,160
2017-02-28T09:16:25.491Z,155
2017-02-28T09:17:06.045Z,160
2017-02-28T09:17:46.554Z,170
2017-02-28T09:18:27.017Z,175
2017-02-28T09:19:07.502Z,180
2017-02-28T09:19:48.014Z,180
2017-02-28T09:20:28.494Z,170
2017-02-28T09:21:08.975Z,160
2017-02-28T09:21:49.455Z,155
2017-02-28T09:22:29.949Z,150
2017-02-28T09:23:10.458Z,145
2017-02-28T09:23:50.977Z,135
2017-02-28T09:24:31.466Z,130
2017-02-28T09:25:11.967Z,130
2017-02-28T09:25:52.519Z,135
2017-02-28T09:26:32.999Z,125
2017-02-28T09:27:13.465Z,125
2017-02-28T09:27:53.990Z,125
2017-02-28T09:28:34.442Z,125
2017-02-28T09:29:15.217Z,125
2017-02-28T09:29:55.767Z,125
2017-02-28T09:30:36.254Z,125
2017-02-28T09:31:16.726Z,125
2017-02-28T09:31:57.264Z,125
2017-02-28T09:32:37.702Z,120
2017-02-28T09:33:18.262Z,120
2017-02-28T09:33:58.739Z,120
2017-02-28T09:34:39.260Z,115
2017-02-28T09:35:19.710Z,115
2017-02-28T09:36:00.175Z,115
2017-02-28T09:36:40.699Z,115
2017-02-28T09:37:21.171Z,120
2017-02-28T09:38:01.638Z,120
2017-02-28T09:38:42.176Z,120
2017-02-28T09:39:22.652Z,125
2017-02-28T09:40:03.176Z,125
2017-02-28T09:40:43.651Z,125
2017-02-28T09:41:24.241Z,120
2017-02-28T09:42:04.678Z,125
2017-02-28T09:42:45.209Z,125
2017-02-28T09:43:25.646Z,130
2017-02-28T09:44:06.188Z,135
2017-02-28T09:44:46.729Z,140
2017-02-28T09:45:27.182Z,140
2017-02-28T09:46:07.699Z,145
2017-02-28T09:46:48.283Z,150
2017-02-28T09:47:28.812Z,155
2017-02-28T09:48:09.271Z,155
2017-02-28T09:48:49.742Z,155
2017-02-28T09:49:30.256Z,155